createdAt,value
2018-07-09T00:00:28.978Z,99.99
2018-07-09T00:01:28.886Z,99.99
2018-07-09T00:02:28.792Z,99.99
2018-07-09T00:03:28.705Z,99.99
2018-07-09T00:04:28.617Z,99.99
2018-07-09T00:05:28.551Z,99.99
2018-07-09T00:06:28.430Z,99.99
2018-07-09T00:07:28.341Z,99.99
2018-07-09T00:08:28.248Z,99.99
2018-07-09T00:09:28.157Z,99.99
2018-07-09T00:10:28.099Z,99.99
2018-07-09T00:11:28.073Z,99.99
2018-07-09T00:12:27.889Z,99.99
2018-07-09T00:13:27.797Z,99.99
2018-07-09T00:14:27.708Z,99.99
2018-07-09T00:15:27.647Z,99.99
2018-07-09T00:16:27.526Z,99.99
2018-07-09T00:17:27.434Z,99.99
2018-07-09T00:18:27.440Z,99.99
2018-07-09T00:19:27.254Z,99.99
2018-07-09T00:20:27.193Z,99.99
2018-07-09T00:21:27.074Z,99.99
2018-07-09T00:22:26.983Z,99.99
2018-07-09T00:23:26.892Z,99.99
2018-07-09T00:24:26.801Z,99.99
2018-07-09T00:25:26.840Z,99.99
2018-07-09T00:26:26.623Z,99.99
2018-07-09T00:27:26.529Z,99.99
2018-07-09T00:28:26.440Z,99.99
2018-07-09T00:29:26.351Z,99.99
2018-07-09T00:30:26.260Z,99.99
2018-07-09T00:31:26.199Z,99.99
2018-07-09T00:32:26.185Z,99.99
2018-07-09T00:33:25.988Z,99.99
2018-07-09T00:34:25.899Z,99.99
2018-07-09T00:35:25.810Z,99.99
2018-07-09T00:36:25.752Z,99.99
2018-07-09T00:37:25.628Z,99.99
2018-07-09T00:38:25.537Z,99.99
2018-07-09T00:39:25.554Z,99.99
2018-07-09T00:40:25.358Z,99.99
2018-07-09T00:41:25.296Z,99.99
2018-07-09T00:42:25.175Z,99.99
2018-07-09T00:43:25.086Z,99.99
2018-07-09T00:44:24.996Z,99.99
2018-07-09T00:45:24.909Z,99.99
2018-07-09T00:46:24.950Z,99.99
2018-07-09T00:47:24.724Z,99.99
2018-07-09T00:48:24.635Z,99.99
2018-07-09T00:49:24.541Z,99.99
2018-07-09T00:50:24.452Z,99.99
2018-07-09T00:51:24.393Z,99.99
2018-07-09T00:52:24.272Z,99.99
2018-07-09T00:53:24.272Z,99.99
2018-07-09T00:54:24.092Z,99.99
2018-07-09T00:55:24.001Z,99.99
2018-07-09T00:56:23.941Z,99.99
2018-07-09T00:57:23.821Z,99.99
2018-07-09T00:58:23.731Z,99.99
2018-07-09T00:59:23.647Z,99.99
2018-07-09T01:00:23.660Z,99.99
2018-07-09T01:01:23.488Z,99.99
2018-07-09T01:02:23.367Z,99.99
2018-07-09T01:03:23.277Z,99.99
2018-07-09T01:04:23.187Z,99.99
2018-07-09T01:05:23.096Z,99.99
2018-07-09T01:06:23.045Z,99.99
2018-07-09T01:07:23.012Z,99.99
2018-07-09T01:08:22.827Z,99.99
2018-07-09T01:09:22.735Z,99.99
2018-07-09T01:10:22.642Z,99.99
2018-07-09T01:11:22.584Z,99.99
2018-07-09T01:12:22.464Z,99.99
2018-07-09T01:13:22.372Z,99.99
2018-07-09T01:14:22.376Z,99.99
2018-07-09T01:15:22.190Z,99.99
2018-07-09T01:16:22.133Z,99.99
2018-07-09T01:17:22.008Z,99.99
2018-07-09T01:18:21.919Z,99.99
2018-07-09T01:19:21.831Z,99.99
2018-07-09T01:20:21.768Z,99.99
2018-07-09T01:21:21.649Z,99.99
2018-07-09T01:22:21.586Z,99.99
2018-07-09T01:23:21.466Z,99.99
2018-07-09T01:24:21.376Z,99.99
2018-07-09T01:25:21.285Z,99.99
2018-07-09T01:26:21.233Z,99.99
2018-07-09T01:27:21.104Z,99.99
2018-07-09T01:28:21.108Z,99.99
2018-07-09T01:29:20.921Z,99.99
2018-07-09T01:30:20.832Z,99.99
2018-07-09T01:31:20.745Z,99.99
2018-07-09T01:32:20.687Z,99.99
2018-07-09T01:33:20.557Z,99.99
2018-07-09T01:34:20.467Z,99.99
2018-07-09T01:35:20.467Z,99.99
2018-07-09T01:36:20.284Z,99.99
2018-07-09T01:37:20.227Z,99.99
2018-07-09T01:38:20.104Z,99.99
2018-07-09T01:39:20.012Z,99.99
2018-07-09T01:40:19.922Z,99.99
2018-07-09T01:41:19.832Z,99.99
2018-07-09T01:42:19.773Z,99.99
2018-07-09T01:43:19.649Z,99.99
2018-07-09T01:44:19.558Z,99.99
2018-07-09T01:45:19.469Z,99.99
2018-07-09T01:46:19.378Z,99.99
2018-07-09T01:47:19.322Z,99.99
2018-07-09T01:48:19.194Z,99.99
2018-07-09T01:49:19.105Z,99.99
2018-07-09T01:50:19.015Z,99.99
2018-07-09T01:51:18.923Z,99.99
2018-07-09T01:52:18.865Z,99.99
2018-07-09T01:53:18.755Z,99.99
2018-07-09T01:54:18.653Z,99.99
2018-07-09T01:55:18.558Z,99.99
2018-07-09T01:56:18.466Z,99.99
2018-07-09T01:57:18.407Z,99.99
2018-07-09T01:58:18.285Z,99.99
2018-07-09T01:59:18.192Z,99.99
2018-07-09T02:00:18.103Z,99.99
2018-07-09T02:01:18.012Z,99.99
2018-07-09T02:02:17.954Z,99.99
2018-07-09T02:03:17.830Z,99.99
2018-07-09T02:04:17.739Z,99.99
2018-07-09T02:05:17.647Z,99.99
2018-07-09T02:06:17.554Z,99.99
2018-07-09T02:07:17.499Z,99.99
2018-07-09T02:08:17.376Z,99.99
2018-07-09T02:09:17.282Z,99.99
2018-07-09T02:10:17.195Z,99.99
2018-07-09T02:11:17.107Z,99.99
2018-07-09T02:12:17.042Z,99.99
2018-07-09T02:13:16.920Z,99.99
2018-07-09T02:14:16.828Z,99.99
2018-07-09T02:15:16.738Z,99.99
2018-07-09T02:16:16.650Z,99.99
2018-07-09T02:17:16.591Z,99.99
2018-07-09T02:18:16.468Z,99.99
2018-07-09T02:19:16.375Z,99.99
2018-07-09T02:20:16.284Z,99.99
2018-07-09T02:21:16.198Z,99.99
2018-07-09T02:22:16.137Z,99.99
2018-07-09T02:23:16.015Z,99.99
2018-07-09T02:24:15.922Z,99.99
2018-07-09T02:25:15.827Z,99.99
2018-07-09T02:26:15.738Z,99.99
2018-07-09T02:27:15.680Z,99.99
2018-07-09T02:28:15.558Z,99.99
2018-07-09T02:29:15.468Z,99.99
2018-07-09T02:30:15.381Z,99.99
2018-07-09T02:31:15.289Z,99.99
2018-07-09T02:32:15.198Z,99.99
2018-07-09T02:33:15.132Z,99.99
2018-07-09T02:34:15.017Z,99.99
2018-07-09T02:35:14.921Z,99.99
2018-07-09T02:36:14.834Z,99.99
2018-07-09T02:37:14.743Z,99.99
2018-07-09T02:38:14.684Z,99.99
2018-07-09T02:39:14.560Z,99.99
2018-07-09T02:40:14.467Z,99.99
2018-07-09T02:41:14.374Z,99.99
2018-07-09T02:42:14.292Z,99.99
2018-07-09T02:43:14.226Z,99.99
2018-07-09T02:44:14.105Z,99.99
2018-07-09T02:45:14.030Z,99.99
2018-07-09T02:46:13.924Z,99.99
2018-07-09T02:47:13.835Z,99.99
2018-07-09T02:48:13.777Z,99.99
2018-07-09T02:49:13.742Z,99.99
2018-07-09T02:50:13.561Z,99.99
2018-07-09T02:51:13.468Z,99.99
2018-07-09T02:52:13.382Z,99.99
2018-07-09T02:53:13.322Z,99.99
2018-07-09T02:54:13.208Z,99.99
2018-07-09T02:55:13.111Z,99.99
2018-07-09T02:56:13.015Z,99.99
2018-07-09T02:57:12.924Z,99.99
2018-07-09T02:58:12.962Z,99.99
2018-07-09T02:59:12.743Z,99.99
2018-07-09T03:00:12.652Z,99.99
2018-07-09T03:01:12.660Z,99.99
2018-07-09T03:02:12.476Z,99.99
2018-07-09T03:03:12.409Z,99.99
2018-07-09T03:04:12.287Z,99.99
2018-07-09T03:05:12.197Z,99.99
2018-07-09T03:06:12.107Z,99.99
2018-07-09T03:07:12.016Z,99.99
2018-07-09T03:08:11.956Z,99.99
2018-07-09T03:09:11.846Z,99.99
2018-07-09T03:10:11.742Z,99.99
2018-07-09T03:11:11.651Z,99.99
2018-07-09T03:12:11.656Z,99.99
2018-07-09T03:13:11.498Z,99.99
2018-07-09T03:14:11.378Z,99.99
2018-07-09T03:15:11.291Z,99.99
2018-07-09T03:16:11.215Z,99.99
2018-07-09T03:17:11.106Z,99.99
2018-07-09T03:18:11.049Z,99.99
2018-07-09T03:19:11.037Z,99.99
2018-07-09T03:20:10.842Z,99.99
2018-07-09T03:21:10.742Z,99.99
2018-07-09T03:22:10.653Z,99.99
2018-07-09T03:23:10.595Z,99.99
2018-07-09T03:24:10.476Z,99.99
2018-07-09T03:25:10.382Z,99.99
2018-07-09T03:26:10.405Z,99.99
2018-07-09T03:27:10.199Z,99.99
2018-07-09T03:28:10.144Z,99.99
2018-07-09T03:29:10.016Z,99.99
2018-07-09T03:30:09.925Z,99.99
2018-07-09T03:31:09.834Z,99.99
2018-07-09T03:32:09.748Z,99.99
2018-07-09T03:33:09.778Z,99.99
2018-07-09T03:34:09.563Z,99.99
2018-07-09T03:35:09.472Z,99.99
2018-07-09T03:36:09.383Z,99.99
2018-07-09T03:37:09.292Z,99.99
2018-07-09T03:38:09.231Z,99.99
2018-07-09T03:39:09.111Z,99.99
2018-07-09T03:40:09.115Z,99.99
2018-07-09T03:41:08.929Z,99.99
2018-07-09T03:42:08.842Z,99.99
2018-07-09T03:43:08.753Z,99.99
2018-07-09T03:44:08.689Z,99.99
2018-07-09T03:45:08.565Z,99.99
2018-07-09T03:46:08.474Z,99.99
2018-07-09T03:47:08.488Z,99.99
2018-07-09T03:48:08.298Z,99.99
2018-07-09T03:49:08.239Z,99.99
2018-07-09T03:50:08.115Z,99.99
2018-07-09T03:51:08.021Z,99.99
2018-07-09T03:52:07.937Z,99.99
2018-07-09T03:53:07.843Z,99.99
2018-07-09T03:54:07.879Z,99.99
2018-07-09T03:55:07.662Z,99.99
2018-07-09T03:56:07.572Z,99.99
2018-07-09T03:57:07.480Z,99.99
2018-07-09T03:58:07.401Z,99.99
2018-07-09T03:59:07.337Z,99.99
2018-07-09T04:00:07.211Z,99.99
2018-07-09T04:01:07.217Z,99.99
2018-07-09T04:02:07.077Z,99.99
2018-07-09T04:03:06.941Z,99.99
2018-07-09T04:04:06.884Z,99.99
2018-07-09T04:05:06.759Z,99.99
2018-07-09T04:06:06.670Z,99.99
2018-07-09T04:07:06.580Z,99.99
2018-07-09T04:08:06.604Z,99.99
2018-07-09T04:09:06.430Z,99.99
2018-07-09T04:10:06.310Z,99.99
2018-07-09T04:11:06.222Z,99.99
2018-07-09T04:12:06.128Z,99.99
2018-07-09T04:13:06.036Z,99.99
2018-07-09T04:14:05.979Z,99.99
2018-07-09T04:15:05.949Z,99.99
2018-07-09T04:16:05.769Z,99.99
2018-07-09T04:17:05.676Z,99.99
2018-07-09T04:18:05.588Z,99.99
2018-07-09T04:19:05.542Z,99.99
2018-07-09T04:20:05.407Z,99.99
2018-07-09T04:21:05.320Z,99.99
2018-07-09T04:22:05.223Z,99.99
2018-07-09T04:23:05.135Z,99.99
2018-07-09T04:24:05.077Z,99.99
2018-07-09T04:25:04.955Z,99.99
2018-07-09T04:26:04.862Z,99.99
2018-07-09T04:27:04.777Z,99.99
2018-07-09T04:28:04.686Z,99.99
2018-07-09T04:29:04.625Z,99.99
2018-07-09T04:30:04.504Z,99.99
2018-07-09T04:31:04.414Z,99.99
2018-07-09T04:32:04.327Z,99.99
2018-07-09T04:33:04.233Z,99.99
2018-07-09T04:34:04.188Z,99.99
2018-07-09T04:35:04.054Z,99.99
2018-07-09T04:36:03.965Z,99.99
2018-07-09T04:37:03.872Z,99.99
2018-07-09T04:38:03.782Z,99.99
2018-07-09T04:39:03.725Z,99.99
2018-07-09T04:40:03.600Z,99.99
2018-07-09T04:41:03.511Z,99.99
2018-07-09T04:42:03.420Z,99.99
2018-07-09T04:43:03.331Z,99.99
2018-07-09T04:44:03.270Z,99.99
2018-07-09T04:45:03.150Z,99.99
2018-07-09T04:46:03.059Z,99.99
2018-07-09T04:47:02.972Z,99.99
2018-07-09T04:48:02.883Z,99.99
2018-07-09T04:49:02.790Z,99.99
2018-07-09T04:50:02.730Z,99.99
2018-07-09T04:51:02.609Z,99.99
2018-07-09T04:52:02.521Z,99.99
2018-07-09T04:53:02.428Z,99.99
2018-07-09T04:54:02.372Z,99.99
2018-07-09T04:55:02.251Z,99.99
2018-07-09T04:56:02.159Z,99.99
2018-07-09T04:57:02.070Z,99.99
2018-07-09T04:58:01.977Z,99.99
2018-07-09T04:59:01.891Z,99.99
2018-07-09T05:00:01.828Z,99.99
2018-07-09T05:01:01.708Z,99.99
2018-07-09T05:02:01.615Z,99.99
2018-07-09T05:03:01.533Z,99.99
2018-07-09T05:04:01.438Z,99.99
2018-07-09T05:05:01.455Z,99.99
2018-07-09T05:06:01.259Z,99.99
2018-07-09T05:07:01.168Z,99.99
2018-07-09T05:08:01.078Z,99.99
2018-07-09T05:09:00.986Z,99.99
2018-07-09T05:10:00.928Z,99.99
2018-07-09T05:11:00.808Z,99.99
2018-07-09T05:12:00.720Z,99.99
2018-07-09T05:13:00.658Z,99.99
2018-07-09T05:14:00.541Z,99.99
2018-07-09T05:15:00.484Z,99.99
2018-07-09T05:16:00.361Z,99.99
2018-07-09T05:17:00.274Z,99.99
2018-07-09T05:18:00.182Z,99.99
2018-07-09T05:19:00.093Z,99.99
2018-07-09T05:20:00.044Z,99.99
2018-07-09T05:20:59.912Z,99.99
2018-07-09T05:21:59.825Z,99.99
2018-07-09T05:22:59.734Z,99.99
2018-07-09T05:23:59.674Z,99.99
2018-07-09T05:24:59.592Z,99.99
2018-07-09T05:25:59.465Z,99.99
2018-07-09T05:26:59.376Z,99.99
2018-07-09T05:27:59.290Z,99.99
2018-07-09T05:28:59.197Z,99.99
2018-07-09T05:29:59.142Z,99.99
2018-07-09T05:30:59.025Z,99.99
2018-07-09T05:31:58.960Z,99.99
2018-07-09T05:32:58.843Z,99.99
2018-07-09T05:33:58.765Z,99.99
2018-07-09T05:34:58.699Z,99.99
2018-07-09T05:35:58.578Z,99.99
2018-07-09T05:36:58.484Z,99.99
2018-07-09T05:37:58.488Z,99.99
2018-07-09T05:38:58.309Z,99.99
2018-07-09T05:39:58.264Z,99.99
2018-07-09T05:40:58.131Z,99.99
2018-07-09T05:41:58.044Z,99.99
2018-07-09T05:42:57.959Z,99.99
2018-07-09T05:43:57.867Z,99.99
2018-07-09T05:44:57.806Z,99.99
2018-07-09T05:45:57.690Z,99.99
2018-07-09T05:46:57.673Z,99.99
2018-07-09T05:47:57.794Z,99.99
2018-07-09T05:48:57.423Z,99.99
2018-07-09T05:49:57.365Z,99.99
2018-07-09T05:50:57.246Z,99.99
2018-07-09T05:51:57.163Z,99.99
2018-07-09T05:52:57.069Z,99.99
2018-07-09T05:53:56.980Z,99.99
2018-07-09T05:54:56.922Z,99.99
2018-07-09T05:55:56.806Z,99.99
2018-07-09T05:56:56.715Z,99.99
2018-07-09T05:57:56.628Z,99.99
2018-07-09T05:58:56.567Z,99.99
2018-07-09T05:59:56.549Z,99.99
2018-07-09T06:00:56.392Z,99.99
2018-07-09T06:01:56.271Z,99.99
2018-07-09T06:02:56.198Z,99.99
2018-07-09T06:03:56.097Z,99.99
2018-07-09T06:04:56.013Z,99.99
2018-07-09T06:05:55.953Z,99.99
2018-07-09T06:06:55.926Z,99.99
2018-07-09T06:07:55.743Z,99.99
2018-07-09T06:08:55.659Z,99.99
2018-07-09T06:09:55.572Z,99.99
2018-07-09T06:10:55.513Z,99.99
2018-07-09T06:11:55.391Z,99.99
2018-07-09T06:12:55.304Z,99.99
2018-07-09T06:13:55.320Z,99.99
2018-07-09T06:14:55.129Z,99.99
2018-07-09T06:15:55.073Z,99.99
2018-07-09T06:16:54.950Z,99.99
2018-07-09T06:17:54.863Z,99.99
2018-07-09T06:18:54.776Z,99.99
2018-07-09T06:19:54.690Z,99.99
2018-07-09T06:20:54.725Z,99.99
2018-07-09T06:21:54.509Z,99.99
2018-07-09T06:22:54.423Z,99.99
2018-07-09T06:23:54.340Z,99.99
2018-07-09T06:24:54.250Z,99.99
2018-07-09T06:25:54.192Z,99.99
2018-07-09T06:26:54.069Z,99.99
2018-07-09T06:27:54.084Z,99.99
2018-07-09T06:28:53.894Z,99.99
2018-07-09T06:29:53.807Z,99.99
2018-07-09T06:30:53.750Z,99.99
2018-07-09T06:31:53.633Z,99.99
2018-07-09T06:32:53.544Z,99.99
2018-07-09T06:33:53.456Z,99.99
2018-07-09T06:34:53.473Z,99.99
2018-07-09T06:35:53.319Z,99.99
2018-07-09T06:36:53.193Z,99.99
2018-07-09T06:37:53.110Z,99.99
2018-07-09T06:38:53.022Z,99.99
2018-07-09T06:39:52.934Z,99.99
2018-07-09T06:40:52.878Z,99.99
2018-07-09T06:41:52.860Z,99.99
2018-07-09T06:42:52.674Z,99.99
2018-07-09T06:43:52.585Z,99.99
2018-07-09T06:44:52.495Z,99.99
2018-07-09T06:45:52.441Z,99.99
2018-07-09T06:46:52.321Z,99.99
2018-07-09T06:47:52.238Z,99.99
2018-07-09T06:48:52.246Z,99.99
2018-07-09T06:49:52.060Z,99.69
2018-07-09T06:50:52.008Z,99.16
2018-07-09T06:51:51.890Z,97.91
2018-07-09T06:52:51.801Z,97.72
2018-07-09T06:53:51.716Z,96.66
2018-07-09T06:54:51.635Z,96.94
2018-07-09T06:55:51.594Z,98.24
2018-07-09T06:56:51.460Z,97.14
2018-07-09T06:57:51.374Z,96.42
2018-07-09T06:58:51.296Z,96.12
2018-07-09T06:59:51.207Z,94.78
2018-07-09T07:00:51.123Z,95.31
2018-07-09T07:01:51.068Z,95.31
2018-07-09T07:02:50.951Z,94.63
2018-07-09T07:03:50.869Z,94.39
2018-07-09T07:04:50.783Z,92.56
2018-07-09T07:05:50.702Z,91.74
2018-07-09T07:06:50.649Z,91.59
2018-07-09T07:07:50.539Z,90.53
2018-07-09T07:08:50.550Z,90.62
2018-07-09T07:09:50.368Z,89.56
2018-07-09T07:10:50.281Z,87.67
2018-07-09T07:11:50.229Z,87.58
2018-07-09T07:12:50.116Z,87.43
2018-07-09T07:13:50.035Z,87.04
2018-07-09T07:14:49.951Z,87.62
2018-07-09T07:15:49.874Z,87.96
2018-07-09T07:16:49.820Z,88.25
2018-07-09T07:17:49.705Z,87.23
2018-07-09T07:18:49.626Z,88.49
2018-07-09T07:19:49.543Z,86.31
2018-07-09T07:20:49.458Z,85.15
2018-07-09T07:21:49.414Z,85.15
2018-07-09T07:22:49.295Z,84.80
2018-07-09T07:23:49.215Z,83.74
2018-07-09T07:24:49.134Z,84.13
2018-07-09T07:25:49.053Z,83.06
2018-07-09T07:26:49.003Z,84.03
2018-07-09T07:27:48.892Z,83.55
2018-07-09T07:28:48.818Z,84.09
2018-07-09T07:29:48.730Z,85.40
2018-07-09T07:30:48.653Z,85.40
2018-07-09T07:31:48.610Z,86.56
2018-07-09T07:32:48.552Z,84.57
2018-07-09T07:33:48.407Z,84.95
2018-07-09T07:34:48.332Z,84.03
2018-07-09T07:35:48.251Z,83.16
2018-07-09T07:36:48.200Z,83.74
2018-07-09T07:37:48.089Z,83.49
2018-07-09T07:38:48.009Z,82.53
2018-07-09T07:39:47.929Z,83.11
2018-07-09T07:40:47.848Z,82.68
2018-07-09T07:41:47.801Z,80.59
2018-07-09T07:42:47.688Z,81.52
2018-07-09T07:43:47.620Z,80.59
2018-07-09T07:44:47.557Z,82.10
2018-07-09T07:45:47.450Z,81.81
2018-07-09T07:46:47.428Z,81.95
2018-07-09T07:47:47.294Z,82.23
2018-07-09T07:48:47.220Z,84.28
2018-07-09T07:49:47.131Z,82.39
2018-07-09T07:50:47.051Z,83.99
2018-07-09T07:51:47.010Z,84.28
2018-07-09T07:52:46.893Z,84.67
2018-07-09T07:53:46.814Z,84.77
2018-07-09T07:54:46.734Z,82.78
2018-07-09T07:55:46.677Z,83.40
2018-07-09T07:56:46.607Z,82.43
2018-07-09T07:57:46.499Z,81.12
2018-07-09T07:58:46.417Z,80.63
2018-07-09T07:59:46.336Z,79.02
2018-07-09T08:00:46.257Z,78.15
2018-07-09T08:01:46.207Z,78.19
2018-07-09T08:02:46.101Z,78.09
2018-07-09T08:03:46.021Z,78.48
2018-07-09T08:04:45.943Z,79.41
2018-07-09T08:05:45.858Z,78.92
2018-07-09T08:06:45.813Z,79.50
2018-07-09T08:07:45.701Z,78.54
2018-07-09T08:08:45.621Z,78.54
2018-07-09T08:09:45.561Z,77.47
2018-07-09T08:10:45.464Z,77.03
2018-07-09T08:11:49.004Z,77.94
2018-07-09T08:13:13.472Z,75.13
2018-07-09T08:13:45.274Z,75.61
2018-07-09T08:14:45.165Z,76.35
2018-07-09T08:15:45.070Z,76.78
2018-07-09T08:16:44.995Z,75.48
2018-07-09T08:17:44.943Z,78.87
2018-07-09T08:18:44.835Z,78.00
2018-07-09T08:19:44.759Z,76.79
2018-07-09T08:20:44.678Z,76.60
2018-07-09T08:21:44.599Z,77.09
2018-07-09T08:22:44.559Z,76.83
2018-07-09T08:23:44.440Z,78.03
2018-07-09T08:24:44.391Z,76.29
2018-07-09T08:25:44.544Z,76.06
2018-07-09T08:26:44.204Z,77.37
2018-07-09T08:27:44.159Z,78.15
2018-07-09T08:28:44.048Z,78.44
2018-07-09T08:29:43.971Z,80.54
2018-07-09T08:30:43.890Z,79.60
2018-07-09T08:31:43.816Z,78.97
2018-07-09T08:32:43.854Z,78.09
2018-07-09T08:33:43.651Z,77.19
2018-07-09T08:34:43.572Z,76.93
2018-07-09T08:35:43.494Z,77.03
2018-07-09T08:36:43.414Z,76.93
2018-07-09T08:37:43.367Z,77.67
2018-07-09T08:38:43.259Z,76.99
2018-07-09T08:39:43.274Z,78.21
2018-07-09T08:40:43.099Z,78.59
2018-07-09T08:41:43.022Z,80.11
2018-07-09T08:42:42.976Z,80.40
2018-07-09T08:43:42.864Z,79.82
2018-07-09T08:44:42.783Z,80.69
2018-07-09T08:45:42.707Z,80.20
2018-07-09T08:46:42.718Z,79.24
2018-07-09T08:47:42.585Z,78.11
2018-07-09T08:48:42.465Z,78.05
2018-07-09T08:49:42.401Z,78.44
2018-07-09T08:50:42.309Z,79.06
2018-07-09T08:51:42.226Z,76.54
2018-07-09T08:52:42.178Z,76.99
2018-07-09T08:53:42.179Z,76.00
2018-07-09T08:54:41.989Z,74.51
2018-07-09T08:55:41.910Z,76.45
2018-07-09T08:56:41.831Z,76.83
2018-07-09T08:57:41.780Z,75.77
2018-07-09T08:58:41.671Z,75.42
2018-07-09T08:59:41.594Z,75.61
2018-07-09T09:00:41.606Z,76.10
2018-07-09T09:01:41.433Z,75.81
2018-07-09T09:02:41.385Z,74.97
2018-07-09T09:03:41.303Z,73.22
2018-07-09T09:04:41.192Z,73.67
2018-07-09T09:05:41.115Z,73.93
2018-07-09T09:06:41.037Z,74.80
2018-07-09T09:07:41.080Z,77.09
2018-07-09T09:08:40.879Z,78.74
2018-07-09T09:09:40.801Z,76.60
2018-07-09T09:10:40.718Z,78.74
2018-07-09T09:11:40.642Z,77.32
2018-07-09T09:12:40.590Z,76.15
2018-07-09T09:13:40.480Z,76.68
2018-07-09T09:14:40.496Z,78.19
2018-07-09T09:15:40.324Z,77.61
2018-07-09T09:16:40.266Z,73.67
2018-07-09T09:17:40.220Z,72.39
2018-07-09T09:18:40.087Z,72.61
2018-07-09T09:19:40.008Z,70.81
2018-07-09T09:20:39.932Z,67.63
2018-07-09T09:21:39.942Z,68.99
2018-07-09T09:22:39.804Z,68.05
2018-07-09T09:23:39.691Z,68.22
2018-07-09T09:24:39.612Z,68.12
2018-07-09T09:25:39.554Z,68.09
2018-07-09T09:26:39.454Z,65.37
2018-07-09T09:27:39.379Z,66.34
2018-07-09T09:28:39.411Z,68.05
2018-07-09T09:29:39.219Z,66.99
2018-07-09T09:30:39.144Z,67.50
2018-07-09T09:31:39.124Z,68.44
2018-07-09T09:32:38.989Z,69.32
2018-07-09T09:33:38.939Z,70.57
2018-07-09T09:34:38.831Z,69.06
2018-07-09T09:35:38.754Z,67.41
2018-07-09T09:36:38.675Z,69.41
2018-07-09T09:37:38.595Z,72.45
2018-07-09T09:38:38.551Z,70.35
2018-07-09T09:39:38.442Z,69.67
2018-07-09T09:40:38.363Z,68.76
2018-07-09T09:41:38.287Z,69.31
2018-07-09T09:42:38.300Z,69.50
2018-07-09T09:43:38.162Z,72.12
2018-07-09T09:44:38.050Z,73.73
2018-07-09T09:45:37.975Z,74.57
2018-07-09T09:46:37.895Z,76.35
2018-07-09T09:47:37.818Z,74.76
2018-07-09T09:48:37.771Z,74.57
2018-07-09T09:49:37.757Z,74.18
2018-07-09T09:50:37.584Z,73.69
2018-07-09T09:51:37.504Z,72.77
2018-07-09T09:52:37.425Z,71.50
2018-07-09T09:53:37.378Z,72.63
2018-07-09T09:54:37.269Z,74.38
2018-07-09T09:55:37.195Z,73.44
2018-07-09T09:56:37.110Z,73.44
2018-07-09T09:57:37.031Z,72.06
2018-07-09T09:58:36.982Z,71.28
2018-07-09T09:59:36.875Z,69.76
2018-07-09T10:00:36.813Z,70.64
2018-07-09T10:01:36.715Z,68.89
2018-07-09T10:02:36.640Z,69.41
2018-07-09T10:03:36.589Z,69.12
2018-07-09T10:04:36.478Z,67.96
2018-07-09T10:05:36.397Z,69.22
2018-07-09T10:06:36.377Z,67.21
2018-07-09T10:07:36.239Z,66.66
2018-07-09T10:08:36.207Z,67.73
2018-07-09T10:09:36.081Z,66.76
2018-07-09T10:10:36.005Z,66.96
2018-07-09T10:11:35.925Z,69.84
2018-07-09T10:12:35.845Z,68.63
2018-07-09T10:13:35.798Z,71.42
2018-07-09T10:14:35.689Z,72.29
2018-07-09T10:15:35.609Z,70.93
2018-07-09T10:16:35.545Z,70.41
2018-07-09T10:17:35.455Z,70.73
2018-07-09T10:18:35.405Z,71.70
2018-07-09T10:19:35.293Z,71.42
2018-07-09T10:20:35.215Z,69.76
2018-07-09T10:21:35.141Z,70.90
2018-07-09T10:22:35.059Z,69.24
2018-07-09T10:23:35.083Z,70.51
2018-07-09T10:24:34.901Z,71.48
2018-07-09T10:25:34.822Z,70.86
2018-07-09T10:26:34.745Z,71.83
2018-07-09T10:27:34.665Z,71.64
2018-07-09T10:28:34.625Z,71.15
2018-07-09T10:29:34.508Z,72.41
2018-07-09T10:30:34.433Z,71.93
2018-07-09T10:31:34.349Z,72.45
2018-07-09T10:32:34.270Z,69.48
2018-07-09T10:33:34.224Z,68.83
2018-07-09T10:34:34.115Z,66.60
2018-07-09T10:35:34.036Z,66.89
2018-07-09T10:36:33.953Z,65.37
2018-07-09T10:37:33.876Z,65.75
2018-07-09T10:38:33.828Z,64.11
2018-07-09T10:39:33.770Z,65.40
2018-07-09T10:40:33.637Z,65.98
2018-07-09T10:41:33.561Z,67.83
2018-07-09T10:42:33.483Z,66.44
2018-07-09T10:43:33.433Z,65.20
2018-07-09T10:44:33.325Z,66.60
2018-07-09T10:45:33.247Z,64.91
2018-07-09T10:46:33.167Z,63.36
2018-07-09T10:47:33.090Z,64.33
2018-07-09T10:48:33.013Z,65.69
2018-07-09T10:49:32.966Z,69.57
2018-07-09T10:50:32.857Z,70.09
2018-07-09T10:51:32.777Z,68.76
2018-07-09T10:52:32.696Z,68.73
2018-07-09T10:53:32.621Z,68.73
2018-07-09T10:54:32.570Z,69.34
2018-07-09T10:55:32.460Z,68.76
2018-07-09T10:56:32.381Z,67.14
2018-07-09T10:57:32.311Z,66.86
2018-07-09T10:58:32.318Z,66.66
2018-07-09T10:59:32.178Z,68.25
2018-07-09T11:00:32.067Z,67.50
2018-07-09T11:01:31.986Z,66.50
2018-07-09T11:02:31.908Z,66.63
2018-07-09T11:03:31.833Z,68.93
2018-07-09T11:04:31.781Z,67.18
2018-07-09T11:05:31.784Z,66.40
2018-07-09T11:06:31.594Z,68.08
2018-07-09T11:07:31.514Z,67.63
2018-07-09T11:08:31.435Z,65.53
2018-07-09T11:09:31.387Z,65.14
2018-07-09T11:10:31.277Z,63.55
2018-07-09T11:11:31.202Z,62.68
2018-07-09T11:12:31.213Z,63.65
2018-07-09T11:13:31.041Z,65.01
2018-07-09T11:14:30.996Z,63.68
2018-07-09T11:15:30.883Z,63.26
2018-07-09T11:16:30.817Z,63.91
2018-07-09T11:17:30.727Z,64.30
2018-07-09T11:18:30.648Z,64.07
2018-07-09T11:19:30.698Z,65.27
2018-07-09T11:20:30.494Z,63.23
2018-07-09T11:21:30.417Z,63.55
2018-07-09T11:22:30.337Z,64.04
2018-07-09T11:23:30.256Z,63.68
2018-07-09T11:24:30.208Z,64.23
2018-07-09T11:25:30.099Z,65.63
2018-07-09T11:26:30.115Z,65.20
2018-07-09T11:27:29.941Z,65.92
2018-07-09T11:28:29.864Z,63.68
2018-07-09T11:29:29.821Z,62.23
2018-07-09T11:30:29.708Z,62.03
2018-07-09T11:31:29.631Z,64.59
2018-07-09T11:32:29.549Z,64.65
2018-07-09T11:33:29.564Z,64.69
2018-07-09T11:34:29.430Z,65.72
2018-07-09T11:35:29.319Z,66.21
2018-07-09T11:36:29.276Z,66.53
2018-07-09T11:37:29.165Z,66.27
2018-07-09T11:38:29.081Z,63.75
2018-07-09T11:39:29.002Z,64.72
2018-07-09T11:40:29.051Z,65.59
2018-07-09T11:41:28.847Z,65.20
2018-07-09T11:42:28.767Z,64.14
2018-07-09T11:43:28.689Z,64.14
2018-07-09T11:44:28.613Z,66.56
2018-07-09T11:45:28.563Z,64.14
2018-07-09T11:46:28.452Z,64.88
2018-07-09T11:47:28.467Z,61.97
2018-07-09T11:48:28.296Z,62.84
2018-07-09T11:49:28.217Z,62.41
2018-07-09T11:50:28.170Z,61.44
2018-07-09T11:51:28.058Z,62.13
2018-07-09T11:52:27.978Z,64.69
2018-07-09T11:53:27.899Z,63.85
2018-07-09T11:54:27.821Z,63.20
2018-07-09T11:55:27.774Z,64.88
2018-07-09T11:56:27.667Z,63.26
2018-07-09T11:57:27.587Z,62.74
2018-07-09T11:58:27.507Z,60.54
2018-07-09T11:59:27.429Z,60.93
2018-07-09T12:00:27.382Z,62.26
2018-07-09T12:01:27.269Z,61.96
2018-07-09T12:02:27.193Z,60.74
2018-07-09T12:03:27.119Z,61.12
2018-07-09T12:04:27.038Z,60.77
2018-07-09T12:05:26.991Z,61.25
2018-07-09T12:06:26.875Z,60.35
2018-07-09T12:07:26.800Z,58.95
2018-07-09T12:08:26.720Z,61.51
2018-07-09T12:09:26.645Z,60.66
2018-07-09T12:10:26.595Z,61.24
2018-07-09T12:11:26.516Z,59.56
2018-07-09T12:12:26.407Z,60.69
2018-07-09T12:13:26.327Z,60.21
2018-07-09T12:14:26.254Z,61.28
2018-07-09T12:15:26.205Z,60.31
2018-07-09T12:16:26.099Z,58.26
2018-07-09T12:17:26.019Z,57.97
2018-07-09T12:18:25.942Z,59.63
2018-07-09T12:19:25.865Z,59.50
2018-07-09T12:20:25.817Z,56.68
2018-07-09T12:21:25.715Z,58.36
2018-07-09T12:22:25.630Z,57.87
2018-07-09T12:23:25.555Z,56.61
2018-07-09T12:24:25.476Z,58.49
2018-07-09T12:25:25.428Z,56.90
2018-07-09T12:26:25.319Z,57.00
2018-07-09T12:27:25.243Z,56.15
2018-07-09T12:28:25.163Z,54.89
2018-07-09T12:29:25.087Z,55.03
2018-07-09T12:30:25.040Z,57.17
2018-07-09T12:31:24.931Z,57.39
2018-07-09T12:32:24.855Z,59.23
2018-07-09T12:33:24.775Z,57.78
2018-07-09T12:34:24.699Z,56.97
2018-07-09T12:35:24.656Z,57.07
2018-07-09T12:36:24.689Z,57.00
2018-07-09T12:37:24.466Z,57.78
2018-07-09T12:38:24.386Z,56.97
2018-07-09T12:39:24.310Z,57.85
2018-07-09T12:40:24.284Z,57.92
2018-07-09T12:41:24.156Z,57.69
2018-07-09T12:42:24.079Z,59.41
2018-07-09T12:43:24.301Z,60.41
2018-07-09T12:44:23.922Z,60.87
2018-07-09T12:45:23.973Z,60.38
2018-07-09T12:46:23.765Z,59.90
2018-07-09T12:47:23.689Z,60.58
2018-07-09T12:48:23.614Z,59.92
2018-07-09T12:49:23.534Z,60.71
2018-07-09T12:50:23.458Z,59.86
2018-07-09T12:51:23.415Z,59.59